Terminal Aerodrome Forecast
Issued by NWS Kansas City/Pleasant Hill, MO

Home | Current Version | Previous Version | Text Only | Print | Product List | Glossary On
Versions: 1 2 3 4 5 6 7 8 9 10 11 12 13 14 15 16 17 18 19
000
FTUS43 KEAX 262325
TAFMCI
TAF
KMCI 262325Z 2700/2724 14007KT P6SM FEW120
     FM271200 15011KT P6SM VCTS SCT050CB SCT150
     FM271600 16012KT P6SM SCT150=

USA.gov is the U.S. government's official web portal to all federal, state and local government web resources and services.